sensor_id;sensor_type;location;lat;lon;timestamp;P1;durP1;ratioP1;P2;durP2;ratioP2
10248;SDS011;5169;50.560;9.714;2024-01-30T00:02:24;133.40;;;44.27;;
10248;SDS011;5169;50.560;9.714;2024-01-30T00:04:52;131.23;;;44.17;;
10248;SDS011;5169;50.560;9.714;2024-01-30T00:07:18;114.23;;;41.50;;
10248;SDS011;5169;50.560;9.714;2024-01-30T00:09:46;128.13;;;43.60;;
10248;SDS011;5169;50.560;9.714;2024-01-30T00:12:13;125.83;;;43.30;;
10248;SDS011;5169;50.560;9.714;2024-01-30T00:14:38;122.07;;;42.47;;
10248;SDS011;5169;50.560;9.714;2024-01-30T00:17:06;126.03;;;43.00;;
10248;SDS011;5169;50.560;9.714;2024-01-30T00:19:32;136.40;;;44.93;;
10248;SDS011;5169;50.560;9.714;2024-01-30T00:21:57;131.93;;;44.37;;
10248;SDS011;5169;50.560;9.714;2024-01-30T00:24:23;132.17;;;44.03;;
10248;SDS011;5169;50.560;9.714;2024-01-30T00:26:49;140.73;;;45.53;;
10248;SDS011;5169;50.560;9.714;2024-01-30T00:29:17;123.23;;;42.80;;
10248;SDS011;5169;50.560;9.714;2024-01-30T00:31:44;117.73;;;41.63;;
10248;SDS011;5169;50.560;9.714;2024-01-30T00:34:10;117.87;;;42.17;;
10248;SDS011;5169;50.560;9.714;2024-01-30T00:36:38;125.17;;;44.13;;
10248;SDS011;5169;50.560;9.714;2024-01-30T00:39:03;126.03;;;43.20;;
10248;SDS011;5169;50.560;9.714;2024-01-30T00:41:34;117.17;;;42.07;;
10248;SDS011;5169;50.560;9.714;2024-01-30T00:43:59;115.60;;;42.07;;
10248;SDS011;5169;50.560;9.714;2024-01-30T00:46:25;120.70;;;42.73;;
10248;SDS011;5169;50.560;9.714;2024-01-30T00:48:50;122.57;;;42.13;;
10248;SDS011;5169;50.560;9.714;2024-01-30T00:51:16;116.23;;;41.37;;
10248;SDS011;5169;50.560;9.714;2024-01-30T00:53:44;114.87;;;41.67;;
10248;SDS011;5169;50.560;9.714;2024-01-30T00:56:10;108.53;;;40.57;;
10248;SDS011;5169;50.560;9.714;2024-01-30T00:58:35;106.10;;;39.90;;
10248;SDS011;5169;50.560;9.714;2024-01-30T01:01:06;111.77;;;40.80;;
10248;SDS011;5169;50.560;9.714;2024-01-30T01:03:32;103.67;;;40.23;;
10248;SDS011;5169;50.560;9.714;2024-01-30T01:05:58;110.53;;;40.90;;
10248;SDS011;5169;50.560;9.714;2024-01-30T01:08:23;105.67;;;39.93;;
10248;SDS011;5169;50.560;9.714;2024-01-30T01:10:50;115.43;;;41.80;;
10248;SDS011;5169;50.560;9.714;2024-01-30T01:13:15;125.00;;;43.47;;
10248;SDS011;5169;50.560;9.714;2024-01-30T01:15:41;122.57;;;43.87;;
10248;SDS011;5169;50.560;9.714;2024-01-30T01:18:06;107.57;;;40.50;;
10248;SDS011;5169;50.560;9.714;2024-01-30T01:20:32;115.60;;;42.20;;
10248;SDS011;5169;50.560;9.714;2024-01-30T01:22:57;119.23;;;42.03;;
10248;SDS011;5169;50.560;9.714;2024-01-30T01:25:23;113.63;;;41.07;;
10248;SDS011;5169;50.560;9.714;2024-01-30T01:27:51;109.97;;;40.90;;
10248;SDS011;5169;50.560;9.714;2024-01-30T01:30:17;105.27;;;40.50;;
10248;SDS011;5169;50.560;9.714;2024-01-30T01:32:50;101.57;;;39.60;;
10248;SDS011;5169;50.560;9.714;2024-01-30T01:35:20;96.23;;;38.93;;
10248;SDS011;5169;50.560;9.714;2024-01-30T01:37:49;95.13;;;38.53;;
10248;SDS011;5169;50.560;9.714;2024-01-30T01:40:23;99.43;;;38.97;;
10248;SDS011;5169;50.560;9.714;2024-01-30T01:42:50;95.43;;;37.70;;
10248;SDS011;5169;50.560;9.714;2024-01-30T01:45:20;106.63;;;40.60;;
10248;SDS011;5169;50.560;9.714;2024-01-30T01:47:50;99.03;;;39.37;;
10248;SDS011;5169;50.560;9.714;2024-01-30T01:50:16;94.27;;;38.50;;
10248;SDS011;5169;50.560;9.714;2024-01-30T01:52:47;100.63;;;39.37;;
10248;SDS011;5169;50.560;9.714;2024-01-30T01:55:13;107.33;;;40.83;;
10248;SDS011;5169;50.560;9.714;2024-01-30T01:57:41;97.17;;;39.63;;
10248;SDS011;5169;50.560;9.714;2024-01-30T02:00:07;100.07;;;39.23;;
10248;SDS011;5169;50.560;9.714;2024-01-30T02:02:35;102.47;;;39.50;;
10248;SDS011;5169;50.560;9.714;2024-01-30T02:05:01;97.33;;;38.73;;
10248;SDS011;5169;50.560;9.714;2024-01-30T02:07:30;100.27;;;38.93;;
10248;SDS011;5169;50.560;9.714;2024-01-30T02:10:01;106.93;;;40.17;;
10248;SDS011;5169;50.560;9.714;2024-01-30T02:12:26;103.93;;;39.40;;
10248;SDS011;5169;50.560;9.714;2024-01-30T02:14:52;97.37;;;38.47;;
10248;SDS011;5169;50.560;9.714;2024-01-30T02:17:19;108.97;;;40.40;;
10248;SDS011;5169;50.560;9.714;2024-01-30T02:19:45;101.57;;;39.70;;
10248;SDS011;5169;50.560;9.714;2024-01-30T02:22:12;100.80;;;40.13;;
10248;SDS011;5169;50.560;9.714;2024-01-30T02:24:40;99.17;;;38.67;;
10248;SDS011;5169;50.560;9.714;2024-01-30T02:27:07;98.40;;;38.70;;
10248;SDS011;5169;50.560;9.714;2024-01-30T02:29:33;96.57;;;38.63;;
10248;SDS011;5169;50.560;9.714;2024-01-30T02:32:01;94.43;;;38.13;;
10248;SDS011;5169;50.560;9.714;2024-01-30T02:34:27;97.33;;;38.97;;
10248;SDS011;5169;50.560;9.714;2024-01-30T02:36:52;96.30;;;38.57;;
10248;SDS011;5169;50.560;9.714;2024-01-30T02:39:20;93.20;;;37.67;;
10248;SDS011;5169;50.560;9.714;2024-01-30T02:41:48;93.03;;;37.77;;
10248;SDS011;5169;50.560;9.714;2024-01-30T02:44:13;102.07;;;39.93;;
10248;SDS011;5169;50.560;9.714;2024-01-30T02:46:39;101.70;;;39.17;;
10248;SDS011;5169;50.560;9.714;2024-01-30T02:49:05;101.10;;;39.67;;
10248;SDS011;5169;50.560;9.714;2024-01-30T02:51:30;97.73;;;39.17;;
10248;SDS011;5169;50.560;9.714;2024-01-30T02:53:56;98.13;;;38.77;;
10248;SDS011;5169;50.560;9.714;2024-01-30T02:56:21;91.43;;;37.40;;
10248;SDS011;5169;50.560;9.714;2024-01-30T02:58:47;97.60;;;38.53;;
10248;SDS011;5169;50.560;9.714;2024-01-30T03:01:13;97.23;;;38.77;;
10248;SDS011;5169;50.560;9.714;2024-01-30T03:03:38;92.97;;;38.53;;
10248;SDS011;5169;50.560;9.714;2024-01-30T03:06:08;93.87;;;38.03;;
10248;SDS011;5169;50.560;9.714;2024-01-30T03:08:35;86.00;;;36.93;;
10248;SDS011;5169;50.560;9.714;2024-01-30T03:11:02;89.83;;;38.07;;
10248;SDS011;5169;50.560;9.714;2024-01-30T03:13:28;93.10;;;38.17;;
10248;SDS011;5169;50.560;9.714;2024-01-30T03:15:53;93.13;;;38.70;;
10248;SDS011;5169;50.560;9.714;2024-01-30T03:18:19;93.23;;;38.23;;
10248;SDS011;5169;50.560;9.714;2024-01-30T03:20:45;89.77;;;37.47;;
10248;SDS011;5169;50.560;9.714;2024-01-30T03:23:11;86.53;;;37.53;;
10248;SDS011;5169;50.560;9.714;2024-01-30T03:25:44;88.93;;;37.67;;
10248;SDS011;5169;50.560;9.714;2024-01-30T03:28:09;83.60;;;36.07;;
10248;SDS011;5169;50.560;9.714;2024-01-30T03:30:35;102.43;;;39.10;;
10248;SDS011;5169;50.560;9.714;2024-01-30T03:33:03;96.13;;;38.40;;
10248;SDS011;5169;50.560;9.714;2024-01-30T03:35:28;102.07;;;39.33;;
10248;SDS011;5169;50.560;9.714;2024-01-30T03:37:54;89.67;;;37.60;;
10248;SDS011;5169;50.560;9.714;2024-01-30T03:40:19;90.30;;;37.47;;
10248;SDS011;5169;50.560;9.714;2024-01-30T03:42:45;89.53;;;37.97;;
10248;SDS011;5169;50.560;9.714;2024-01-30T03:45:11;87.93;;;37.10;;
10248;SDS011;5169;50.560;9.714;2024-01-30T03:47:36;80.80;;;36.53;;
10248;SDS011;5169;50.560;9.714;2024-01-30T03:50:02;71.83;;;34.57;;
10248;SDS011;5169;50.560;9.714;2024-01-30T03:52:29;79.87;;;36.17;;
10248;SDS011;5169;50.560;9.714;2024-01-30T03:54:57;72.23;;;33.77;;
10248;SDS011;5169;50.560;9.714;2024-01-30T03:57:25;76.77;;;35.07;;
10248;SDS011;5169;50.560;9.714;2024-01-30T03:59:50;83.53;;;36.40;;
10248;SDS011;5169;50.560;9.714;2024-01-30T04:02:18;94.30;;;37.67;;
10248;SDS011;5169;50.560;9.714;2024-01-30T04:04:44;90.30;;;37.23;;
10248;SDS011;5169;50.560;9.714;2024-01-30T04:07:11;87.90;;;36.70;;
10248;SDS011;5169;50.560;9.714;2024-01-30T04:09:39;86.90;;;36.70;;
10248;SDS011;5169;50.560;9.714;2024-01-30T04:12:05;83.93;;;36.37;;
10248;SDS011;5169;50.560;9.714;2024-01-30T04:14:31;88.63;;;37.63;;
10248;SDS011;5169;50.560;9.714;2024-01-30T04:16:56;86.47;;;36.67;;
10248;SDS011;5169;50.560;9.714;2024-01-30T04:19:27;90.23;;;37.03;;
10248;SDS011;5169;50.560;9.714;2024-01-30T04:21:52;90.00;;;36.60;;
10248;SDS011;5169;50.560;9.714;2024-01-30T04:24:18;86.90;;;36.73;;
10248;SDS011;5169;50.560;9.714;2024-01-30T04:26:46;85.37;;;36.57;;
10248;SDS011;5169;50.560;9.714;2024-01-30T04:29:11;84.50;;;35.80;;
10248;SDS011;5169;50.560;9.714;2024-01-30T04:31:37;87.73;;;36.47;;
10248;SDS011;5169;50.560;9.714;2024-01-30T04:34:07;85.03;;;36.83;;
10248;SDS011;5169;50.560;9.714;2024-01-30T04:36:33;88.63;;;37.00;;
10248;SDS011;5169;50.560;9.714;2024-01-30T04:39:01;90.83;;;37.73;;
10248;SDS011;5169;50.560;9.714;2024-01-30T04:41:31;92.80;;;37.73;;
10248;SDS011;5169;50.560;9.714;2024-01-30T04:43:57;88.27;;;36.53;;
10248;SDS011;5169;50.560;9.714;2024-01-30T04:46:23;90.70;;;37.50;;
10248;SDS011;5169;50.560;9.714;2024-01-30T04:48:48;86.53;;;36.40;;
10248;SDS011;5169;50.560;9.714;2024-01-30T04:51:14;92.23;;;37.63;;
10248;SDS011;5169;50.560;9.714;2024-01-30T04:53:44;93.53;;;37.97;;
10248;SDS011;5169;50.560;9.714;2024-01-30T04:56:12;86.33;;;37.10;;
10248;SDS011;5169;50.560;9.714;2024-01-30T04:58:39;93.93;;;38.17;;
10248;SDS011;5169;50.560;9.714;2024-01-30T05:01:05;91.93;;;37.13;;
10248;SDS011;5169;50.560;9.714;2024-01-30T05:03:33;79.43;;;35.10;;
10248;SDS011;5169;50.560;9.714;2024-01-30T05:05:59;81.50;;;35.47;;
10248;SDS011;5169;50.560;9.714;2024-01-30T05:08:25;77.63;;;35.03;;
10248;SDS011;5169;50.560;9.714;2024-01-30T05:10:50;78.77;;;34.70;;
10248;SDS011;5169;50.560;9.714;2024-01-30T05:13:16;76.17;;;34.40;;
10248;SDS011;5169;50.560;9.714;2024-01-30T05:15:42;83.53;;;35.80;;
10248;SDS011;5169;50.560;9.714;2024-01-30T05:18:07;89.60;;;36.90;;
10248;SDS011;5169;50.560;9.714;2024-01-30T05:20:33;84.27;;;36.70;;
10248;SDS011;5169;50.560;9.714;2024-01-30T05:22:58;77.30;;;34.97;;
10248;SDS011;5169;50.560;9.714;2024-01-30T05:25:24;79.93;;;35.83;;
10248;SDS011;5169;50.560;9.714;2024-01-30T05:27:54;89.17;;;37.20;;
10248;SDS011;5169;50.560;9.714;2024-01-30T05:30:22;95.67;;;37.33;;
10248;SDS011;5169;50.560;9.714;2024-01-30T05:32:48;99.10;;;38.63;;
10248;SDS011;5169;50.560;9.714;2024-01-30T05:35:14;91.50;;;37.70;;
10248;SDS011;5169;50.560;9.714;2024-01-30T05:37:40;89.23;;;36.97;;
10248;SDS011;5169;50.560;9.714;2024-01-30T05:40:06;97.63;;;38.43;;
10248;SDS011;5169;50.560;9.714;2024-01-30T05:42:32;78.20;;;34.50;;
10248;SDS011;5169;50.560;9.714;2024-01-30T05:44:58;107.30;;;39.93;;
10248;SDS011;5169;50.560;9.714;2024-01-30T05:47:24;118.10;;;41.97;;
10248;SDS011;5169;50.560;9.714;2024-01-30T05:49:51;122.73;;;42.17;;
10248;SDS011;5169;50.560;9.714;2024-01-30T05:52:17;121.47;;;41.83;;
10248;SDS011;5169;50.560;9.714;2024-01-30T05:54:44;111.70;;;40.77;;
10248;SDS011;5169;50.560;9.714;2024-01-30T05:57:14;121.27;;;42.13;;
10248;SDS011;5169;50.560;9.714;2024-01-30T05:59:42;134.23;;;43.73;;
10248;SDS011;5169;50.560;9.714;2024-01-30T06:02:14;132.23;;;43.47;;
10248;SDS011;5169;50.560;9.714;2024-01-30T06:04:40;125.97;;;42.67;;
10248;SDS011;5169;50.560;9.714;2024-01-30T06:07:06;127.80;;;41.53;;
10248;SDS011;5169;50.560;9.714;2024-01-30T06:09:32;115.77;;;40.97;;
10248;SDS011;5169;50.560;9.714;2024-01-30T06:11:58;129.13;;;42.67;;
10248;SDS011;5169;50.560;9.714;2024-01-30T06:14:24;123.73;;;41.97;;
10248;SDS011;5169;50.560;9.714;2024-01-30T06:16:49;121.03;;;41.70;;
10248;SDS011;5169;50.560;9.714;2024-01-30T06:19:15;128.30;;;42.77;;
10248;SDS011;5169;50.560;9.714;2024-01-30T06:21:41;115.40;;;41.23;;
10248;SDS011;5169;50.560;9.714;2024-01-30T06:24:08;120.53;;;41.73;;
10248;SDS011;5169;50.560;9.714;2024-01-30T06:26:34;126.20;;;42.87;;
10248;SDS011;5169;50.560;9.714;2024-01-30T06:29:02;118.07;;;41.70;;
10248;SDS011;5169;50.560;9.714;2024-01-30T06:31:29;116.37;;;41.30;;
10248;SDS011;5169;50.560;9.714;2024-01-30T06:33:56;124.30;;;42.17;;
10248;SDS011;5169;50.560;9.714;2024-01-30T06:36:21;114.57;;;41.07;;
10248;SDS011;5169;50.560;9.714;2024-01-30T06:38:49;117.67;;;42.03;;
10248;SDS011;5169;50.560;9.714;2024-01-30T06:41:15;121.43;;;42.13;;
10248;SDS011;5169;50.560;9.714;2024-01-30T06:43:42;120.13;;;41.83;;
10248;SDS011;5169;50.560;9.714;2024-01-30T06:46:10;123.37;;;42.83;;
10248;SDS011;5169;50.560;9.714;2024-01-30T06:48:35;120.60;;;42.33;;
10248;SDS011;5169;50.560;9.714;2024-01-30T06:51:01;133.40;;;44.07;;
10248;SDS011;5169;50.560;9.714;2024-01-30T06:53:27;128.47;;;42.87;;
10248;SDS011;5169;50.560;9.714;2024-01-30T06:55:55;132.53;;;43.07;;
10248;SDS011;5169;50.560;9.714;2024-01-30T06:58:20;133.17;;;43.80;;
10248;SDS011;5169;50.560;9.714;2024-01-30T07:00:46;129.27;;;43.37;;
10248;SDS011;5169;50.560;9.714;2024-01-30T07:03:12;136.07;;;44.50;;
10248;SDS011;5169;50.560;9.714;2024-01-30T07:05:37;124.23;;;42.63;;
10248;SDS011;5169;50.560;9.714;2024-01-30T07:08:03;135.50;;;43.93;;
10248;SDS011;5169;50.560;9.714;2024-01-30T07:10:32;141.47;;;44.17;;
10248;SDS011;5169;50.560;9.714;2024-01-30T07:13:00;141.80;;;45.23;;
10248;SDS011;5169;50.560;9.714;2024-01-30T07:15:26;144.63;;;45.00;;
10248;SDS011;5169;50.560;9.714;2024-01-30T07:17:51;152.17;;;45.93;;
10248;SDS011;5169;50.560;9.714;2024-01-30T07:20:19;130.70;;;43.40;;
10248;SDS011;5169;50.560;9.714;2024-01-30T07:22:45;136.63;;;43.83;;
10248;SDS011;5169;50.560;9.714;2024-01-30T07:25:11;144.60;;;45.87;;
10248;SDS011;5169;50.560;9.714;2024-01-30T07:27:36;144.20;;;44.50;;
10248;SDS011;5169;50.560;9.714;2024-01-30T07:30:02;146.83;;;45.57;;
10248;SDS011;5169;50.560;9.714;2024-01-30T07:32:28;130.63;;;43.27;;
10248;SDS011;5169;50.560;9.714;2024-01-30T07:34:53;134.80;;;44.00;;
10248;SDS011;5169;50.560;9.714;2024-01-30T07:37:19;140.57;;;44.87;;
10248;SDS011;5169;50.560;9.714;2024-01-30T07:39:47;133.00;;;43.63;;
10248;SDS011;5169;50.560;9.714;2024-01-30T07:42:12;133.60;;;44.37;;
10248;SDS011;5169;50.560;9.714;2024-01-30T07:44:38;153.70;;;46.37;;
10248;SDS011;5169;50.560;9.714;2024-01-30T07:47:04;135.50;;;44.40;;
10248;SDS011;5169;50.560;9.714;2024-01-30T07:49:30;153.90;;;46.83;;
10248;SDS011;5169;50.560;9.714;2024-01-30T07:51:55;155.90;;;46.57;;
10248;SDS011;5169;50.560;9.714;2024-01-30T07:54:21;177.53;;;49.53;;
10248;SDS011;5169;50.560;9.714;2024-01-30T07:56:47;134.37;;;43.67;;
10248;SDS011;5169;50.560;9.714;2024-01-30T07:59:12;145.10;;;46.17;;
10248;SDS011;5169;50.560;9.714;2024-01-30T08:01:38;138.87;;;44.73;;
10248;SDS011;5169;50.560;9.714;2024-01-30T08:04:03;139.97;;;45.37;;
10248;SDS011;5169;50.560;9.714;2024-01-30T08:06:31;149.40;;;46.43;;
10248;SDS011;5169;50.560;9.714;2024-01-30T08:08:57;152.97;;;47.07;;
10248;SDS011;5169;50.560;9.714;2024-01-30T08:11:25;143.50;;;45.43;;
10248;SDS011;5169;50.560;9.714;2024-01-30T08:13:57;139.00;;;44.27;;
10248;SDS011;5169;50.560;9.714;2024-01-30T08:16:24;129.70;;;43.87;;
10248;SDS011;5169;50.560;9.714;2024-01-30T08:18:55;134.97;;;44.53;;
10248;SDS011;5169;50.560;9.714;2024-01-30T08:21:22;142.77;;;46.30;;
10248;SDS011;5169;50.560;9.714;2024-01-30T08:23:48;149.37;;;46.57;;
10248;SDS011;5169;50.560;9.714;2024-01-30T08:26:16;136.47;;;45.30;;
10248;SDS011;5169;50.560;9.714;2024-01-30T08:28:42;125.23;;;44.10;;
10248;SDS011;5169;50.560;9.714;2024-01-30T08:31:07;133.97;;;45.00;;
10248;SDS011;5169;50.560;9.714;2024-01-30T08:33:37;148.70;;;46.43;;
10248;SDS011;5169;50.560;9.714;2024-01-30T08:36:04;145.53;;;46.37;;
10248;SDS011;5169;50.560;9.714;2024-01-30T08:38:30;133.30;;;44.80;;
10248;SDS011;5169;50.560;9.714;2024-01-30T08:40:56;129.33;;;44.10;;
10248;SDS011;5169;50.560;9.714;2024-01-30T08:43:21;127.67;;;44.20;;
10248;SDS011;5169;50.560;9.714;2024-01-30T08:45:49;118.97;;;43.00;;
10248;SDS011;5169;50.560;9.714;2024-01-30T08:48:17;126.00;;;44.17;;
10248;SDS011;5169;50.560;9.714;2024-01-30T08:50:46;112.17;;;42.17;;
10248;SDS011;5169;50.560;9.714;2024-01-30T08:53:11;127.93;;;45.00;;
10248;SDS011;5169;50.560;9.714;2024-01-30T08:55:37;122.83;;;44.17;;
10248;SDS011;5169;50.560;9.714;2024-01-30T08:58:04;121.33;;;43.83;;
10248;SDS011;5169;50.560;9.714;2024-01-30T09:00:30;136.80;;;46.53;;
10248;SDS011;5169;50.560;9.714;2024-01-30T09:02:55;135.87;;;46.23;;
10248;SDS011;5169;50.560;9.714;2024-01-30T09:05:23;131.57;;;45.20;;
10248;SDS011;5169;50.560;9.714;2024-01-30T09:07:51;130.50;;;45.40;;
10248;SDS011;5169;50.560;9.714;2024-01-30T09:10:17;130.43;;;45.17;;
10248;SDS011;5169;50.560;9.714;2024-01-30T09:12:42;124.13;;;44.53;;
10248;SDS011;5169;50.560;9.714;2024-01-30T09:15:08;142.33;;;47.00;;
10248;SDS011;5169;50.560;9.714;2024-01-30T09:17:34;132.03;;;46.20;;
10248;SDS011;5169;50.560;9.714;2024-01-30T09:20:00;135.57;;;46.83;;
10248;SDS011;5169;50.560;9.714;2024-01-30T09:22:25;137.43;;;47.30;;
10248;SDS011;5169;50.560;9.714;2024-01-30T09:24:51;126.47;;;45.37;;
10248;SDS011;5169;50.560;9.714;2024-01-30T09:27:16;127.90;;;45.80;;
10248;SDS011;5169;50.560;9.714;2024-01-30T09:29:45;140.80;;;47.37;;
10248;SDS011;5169;50.560;9.714;2024-01-30T09:32:10;136.13;;;47.57;;
10248;SDS011;5169;50.560;9.714;2024-01-30T09:34:36;142.03;;;47.97;;
10248;SDS011;5169;50.560;9.714;2024-01-30T09:37:04;129.17;;;46.50;;
10248;SDS011;5169;50.560;9.714;2024-01-30T09:39:32;131.27;;;47.40;;
10248;SDS011;5169;50.560;9.714;2024-01-30T09:42:02;127.97;;;46.80;;
10248;SDS011;5169;50.560;9.714;2024-01-30T09:44:32;126.10;;;47.20;;
10248;SDS011;5169;50.560;9.714;2024-01-30T09:47:00;124.13;;;46.23;;
10248;SDS011;5169;50.560;9.714;2024-01-30T09:49:34;130.90;;;47.87;;
10248;SDS011;5169;50.560;9.714;2024-01-30T09:52:02;135.57;;;48.07;;
10248;SDS011;5169;50.560;9.714;2024-01-30T09:54:32;144.53;;;50.90;;
10248;SDS011;5169;50.560;9.714;2024-01-30T09:56:59;135.80;;;49.07;;
10248;SDS011;5169;50.560;9.714;2024-01-30T09:59:24;150.30;;;51.13;;
10248;SDS011;5169;50.560;9.714;2024-01-30T10:01:50;137.13;;;48.23;;
10248;SDS011;5169;50.560;9.714;2024-01-30T10:04:16;141.13;;;49.00;;
10248;SDS011;5169;50.560;9.714;2024-01-30T10:06:47;137.07;;;49.37;;
10248;SDS011;5169;50.560;9.714;2024-01-30T10:09:15;149.27;;;50.20;;
10248;SDS011;5169;50.560;9.714;2024-01-30T10:11:41;147.10;;;49.73;;
10248;SDS011;5169;50.560;9.714;2024-01-30T10:14:06;157.87;;;52.40;;
10248;SDS011;5169;50.560;9.714;2024-01-30T10:16:32;155.00;;;51.43;;
10248;SDS011;5169;50.560;9.714;2024-01-30T10:19:02;154.20;;;51.67;;
10248;SDS011;5169;50.560;9.714;2024-01-30T10:21:27;152.63;;;51.23;;
10248;SDS011;5169;50.560;9.714;2024-01-30T10:23:55;129.60;;;49.33;;
10248;SDS011;5169;50.560;9.714;2024-01-30T10:26:20;132.77;;;50.13;;
10248;SDS011;5169;50.560;9.714;2024-01-30T10:28:46;134.33;;;50.73;;
10248;SDS011;5169;50.560;9.714;2024-01-30T10:31:16;144.73;;;51.27;;
10248;SDS011;5169;50.560;9.714;2024-01-30T10:33:45;163.60;;;53.43;;
10248;SDS011;5169;50.560;9.714;2024-01-30T10:36:14;152.80;;;52.60;;
10248;SDS011;5169;50.560;9.714;2024-01-30T10:38:42;159.83;;;54.20;;
10248;SDS011;5169;50.560;9.714;2024-01-30T10:41:11;139.10;;;51.60;;
10248;SDS011;5169;50.560;9.714;2024-01-30T10:43:42;139.40;;;52.27;;
10248;SDS011;5169;50.560;9.714;2024-01-30T10:46:20;128.77;;;50.60;;
10248;SDS011;5169;50.560;9.714;2024-01-30T10:48:56;139.50;;;53.80;;
10248;SDS011;5169;50.560;9.714;2024-01-30T10:51:24;139.57;;;54.93;;
10248;SDS011;5169;50.560;9.714;2024-01-30T10:53:56;151.03;;;58.77;;
10248;SDS011;5169;50.560;9.714;2024-01-30T10:56:24;159.00;;;60.40;;
10248;SDS011;5169;50.560;9.714;2024-01-30T10:58:53;155.43;;;63.20;;
10248;SDS011;5169;50.560;9.714;2024-01-30T11:01:24;163.43;;;69.47;;
10248;SDS011;5169;50.560;9.714;2024-01-30T11:03:54;160.03;;;69.43;;
10248;SDS011;5169;50.560;9.714;2024-01-30T11:06:22;169.17;;;73.37;;
10248;SDS011;5169;50.560;9.714;2024-01-30T11:09:04;162.07;;;71.03;;
10248;SDS011;5169;50.560;9.714;2024-01-30T11:14:25;157.33;;;67.90;;
10248;SDS011;5169;50.560;9.714;2024-01-30T11:16:51;176.33;;;71.23;;
10248;SDS011;5169;50.560;9.714;2024-01-30T11:19:23;171.90;;;68.53;;
10248;SDS011;5169;50.560;9.714;2024-01-30T11:21:51;180.03;;;72.57;;
10248;SDS011;5169;50.560;9.714;2024-01-30T11:24:20;174.27;;;73.57;;
10248;SDS011;5169;50.560;9.714;2024-01-30T11:27:01;169.10;;;73.57;;
10248;SDS011;5169;50.560;9.714;2024-01-30T11:29:33;161.73;;;72.50;;
10248;SDS011;5169;50.560;9.714;2024-01-30T11:32:03;179.27;;;69.03;;
10248;SDS011;5169;50.560;9.714;2024-01-30T11:34:29;170.33;;;70.53;;
10248;SDS011;5169;50.560;9.714;2024-01-30T11:36:58;168.77;;;68.37;;
10248;SDS011;5169;50.560;9.714;2024-01-30T11:39:28;171.70;;;67.90;;
10248;SDS011;5169;50.560;9.714;2024-01-30T11:41:59;159.00;;;66.07;;
10248;SDS011;5169;50.560;9.714;2024-01-30T11:44:26;156.37;;;68.27;;
10248;SDS011;5169;50.560;9.714;2024-01-30T11:46:52;154.83;;;66.90;;
10248;SDS011;5169;50.560;9.714;2024-01-30T11:49:17;152.17;;;66.60;;
10248;SDS011;5169;50.560;9.714;2024-01-30T11:51:45;160.77;;;66.67;;
10248;SDS011;5169;50.560;9.714;2024-01-30T11:54:13;155.87;;;67.17;;
10248;SDS011;5169;50.560;9.714;2024-01-30T11:56:39;163.20;;;67.93;;
10248;SDS011;5169;50.560;9.714;2024-01-30T11:59:05;151.43;;;69.57;;
10248;SDS011;5169;50.560;9.714;2024-01-30T12:01:31;136.27;;;69.53;;
10248;SDS011;5169;50.560;9.714;2024-01-30T12:03:58;136.57;;;69.03;;
10248;SDS011;5169;50.560;9.714;2024-01-30T12:06:24;140.90;;;65.83;;
10248;SDS011;5169;50.560;9.714;2024-01-30T12:09:00;146.50;;;65.93;;
10248;SDS011;5169;50.560;9.714;2024-01-30T12:11:32;140.97;;;63.63;;
10248;SDS011;5169;50.560;9.714;2024-01-30T12:14:08;138.17;;;61.90;;
10248;SDS011;5169;50.560;9.714;2024-01-30T12:16:36;149.27;;;62.63;;
10248;SDS011;5169;50.560;9.714;2024-01-30T12:19:04;148.80;;;63.10;;
10248;SDS011;5169;50.560;9.714;2024-01-30T12:21:29;137.17;;;61.00;;
10248;SDS011;5169;50.560;9.714;2024-01-30T12:23:56;147.27;;;62.57;;
10248;SDS011;5169;50.560;9.714;2024-01-30T12:26:23;153.80;;;64.90;;
10248;SDS011;5169;50.560;9.714;2024-01-30T12:28:50;141.70;;;61.63;;
10248;SDS011;5169;50.560;9.714;2024-01-30T12:31:26;145.20;;;62.00;;
10248;SDS011;5169;50.560;9.714;2024-01-30T12:33:52;154.30;;;63.70;;
10248;SDS011;5169;50.560;9.714;2024-01-30T12:36:21;148.67;;;62.47;;
10248;SDS011;5169;50.560;9.714;2024-01-30T12:38:47;142.83;;;59.97;;
10248;SDS011;5169;50.560;9.714;2024-01-30T12:41:13;151.77;;;61.03;;
10248;SDS011;5169;50.560;9.714;2024-01-30T12:43:39;156.90;;;58.47;;
10248;SDS011;5169;50.560;9.714;2024-01-30T12:46:05;142.30;;;56.47;;
10248;SDS011;5169;50.560;9.714;2024-01-30T12:48:33;154.50;;;56.47;;
10248;SDS011;5169;50.560;9.714;2024-01-30T12:50:59;147.13;;;55.43;;
10248;SDS011;5169;50.560;9.714;2024-01-30T12:53:24;150.43;;;54.00;;
10248;SDS011;5169;50.560;9.714;2024-01-30T12:55:50;139.50;;;51.93;;
10248;SDS011;5169;50.560;9.714;2024-01-30T12:58:16;151.10;;;52.97;;
10248;SDS011;5169;50.560;9.714;2024-01-30T13:00:41;149.63;;;52.93;;
10248;SDS011;5169;50.560;9.714;2024-01-30T13:03:08;159.20;;;54.83;;
10248;SDS011;5169;50.560;9.714;2024-01-30T13:05:35;145.30;;;52.10;;
10248;SDS011;5169;50.560;9.714;2024-01-30T13:08:00;158.00;;;53.73;;
10248;SDS011;5169;50.560;9.714;2024-01-30T13:10:26;166.33;;;54.77;;
10248;SDS011;5169;50.560;9.714;2024-01-30T13:12:54;161.60;;;54.03;;
10248;SDS011;5169;50.560;9.714;2024-01-30T13:15:23;181.83;;;56.20;;
10248;SDS011;5169;50.560;9.714;2024-01-30T13:17:49;167.17;;;54.37;;
10248;SDS011;5169;50.560;9.714;2024-01-30T13:20:15;174.67;;;55.67;;
10248;SDS011;5169;50.560;9.714;2024-01-30T13:22:56;181.67;;;55.93;;
10248;SDS011;5169;50.560;9.714;2024-01-30T13:25:21;177.67;;;55.13;;
10248;SDS011;5169;50.560;9.714;2024-01-30T13:27:47;204.73;;;58.57;;
10248;SDS011;5169;50.560;9.714;2024-01-30T13:30:12;206.70;;;60.07;;
10248;SDS011;5169;50.560;9.714;2024-01-30T13:32:39;179.53;;;57.20;;
10248;SDS011;5169;50.560;9.714;2024-01-30T13:35:06;174.27;;;56.63;;
10248;SDS011;5169;50.560;9.714;2024-01-30T13:37:34;174.43;;;56.67;;
10248;SDS011;5169;50.560;9.714;2024-01-30T13:40:05;178.40;;;57.80;;
10248;SDS011;5169;50.560;9.714;2024-01-30T13:42:32;150.37;;;53.97;;
10248;SDS011;5169;50.560;9.714;2024-01-30T13:44:57;159.97;;;54.53;;
10248;SDS011;5169;50.560;9.714;2024-01-30T13:47:23;168.10;;;55.33;;
10248;SDS011;5169;50.560;9.714;2024-01-30T13:49:49;171.87;;;55.90;;
10248;SDS011;5169;50.560;9.714;2024-01-30T13:52:14;195.17;;;57.10;;
10248;SDS011;5169;50.560;9.714;2024-01-30T13:54:40;157.23;;;53.43;;
10248;SDS011;5169;50.560;9.714;2024-01-30T13:57:05;138.93;;;50.33;;
10248;SDS011;5169;50.560;9.714;2024-01-30T13:59:32;130.27;;;50.83;;
10248;SDS011;5169;50.560;9.714;2024-01-30T14:02:00;103.90;;;46.97;;
10248;SDS011;5169;50.560;9.714;2024-01-30T14:04:28;106.10;;;45.90;;
10248;SDS011;5169;50.560;9.714;2024-01-30T14:06:58;132.60;;;50.00;;
10248;SDS011;5169;50.560;9.714;2024-01-30T14:09:24;132.83;;;49.80;;
10248;SDS011;5169;50.560;9.714;2024-01-30T14:11:52;136.87;;;51.63;;
10248;SDS011;5169;50.560;9.714;2024-01-30T14:14:18;133.40;;;49.67;;
10248;SDS011;5169;50.560;9.714;2024-01-30T14:16:44;140.33;;;51.13;;
10248;SDS011;5169;50.560;9.714;2024-01-30T14:19:10;145.07;;;50.93;;
10248;SDS011;5169;50.560;9.714;2024-01-30T14:21:40;159.53;;;53.10;;
10248;SDS011;5169;50.560;9.714;2024-01-30T14:24:08;141.97;;;51.33;;
10248;SDS011;5169;50.560;9.714;2024-01-30T14:26:33;139.37;;;50.67;;